Terminal Aerodrome Forecast
Issued by NWS Springfield, MO

Home | Current Version | Previous Version | Text Only | Print | Product List | Glossary On
Versions: 1 2 3 4 5 6 7 8 9 10 11 12 13 14 15 16 17 18 19 20 21 22
000
FTUS43 KSGF 271100
TAFSGF
TAF
KSGF 271120Z 2712/2812 36008KT P6SM SKC
     FM271700 07007KT P6SM BKN080 OVC150
     FM272300 11008KT P6SM OVC050=

USA.gov is the U.S. government's official web portal to all federal, state and local government web resources and services.